Time;durP1;ratioP1;P1;durP2;ratioP2;P2;SDS_P1;SDS_P2;PMS_P1;PMS_P2;Temp;Humidity;BMP_temperature;BMP_pressure;BME280_temperature;BME280_humidity;BME280_pressure;Samples;Min_cycle;Max_cycle;Signal;HPM_P1;HPM_P2
2023/12/04 00:02:05;;;;;;;;;8.33;5.67;;;;;;;;5076349;28;45326;-70
2023/12/04 00:04:31;;;;;;;;;12.33;9.00;;;;;;;;5075039;28;45358;-71
2023/12/04 00:06:56;;;;;;;;;13.25;9.50;;;;;;;;5056810;28;45461;-69
2023/12/04 00:09:23;;;;;;;;;9.00;5.75;;;;;;;;5072406;27;45202;-71
2023/12/04 00:11:48;;;;;;;;;12.25;10.25;;;;;;;;5074468;28;45457;-69
2023/12/04 00:14:14;;;;;;;;;10.67;7.00;;;;;;;;5076033;28;46412;-71
2023/12/04 00:16:39;;;;;;;;;9.75;5.75;;;;;;;;5074777;28;45398;-69
2023/12/04 00:19:04;;;;;;;;;13.00;6.67;;;;;;;;5075706;28;45961;-69
2023/12/04 00:21:29;;;;;;;;;9.00;6.00;;;;;;;;5073155;27;45398;-71
2023/12/04 00:23:54;;;;;;;;;9.33;6.00;;;;;;;;5074549;28;45141;-71
2023/12/04 00:26:19;;;;;;;;;9.33;6.00;;;;;;;;5057372;28;45477;-71
2023/12/04 00:28:45;;;;;;;;;7.00;7.00;;;;;;;;5074171;28;45401;-70
2023/12/04 00:31:10;;;;;;;;;10.33;6.00;;;;;;;;5074189;27;45552;-70
2023/12/04 00:33:36;;;;;;;;;5.50;5.50;;;;;;;;5075450;28;45326;-71
2023/12/04 00:36:01;;;;;;;;;7.75;6.00;;;;;;;;5075124;28;45801;-71
2023/12/04 00:38:26;;;;;;;;;5.50;5.00;;;;;;;;5074189;28;45539;-71
2023/12/04 00:40:52;;;;;;;;;9.33;3.00;;;;;;;;5055120;28;45442;-69
2023/12/04 00:43:17;;;;;;;;;9.75;7.00;;;;;;;;5074213;28;45635;-70
2023/12/04 00:45:42;;;;;;;;;14.25;8.75;;;;;;;;5073915;28;45389;-70
2023/12/04 00:48:07;;;;;;;;;8.33;6.00;;;;;;;;5074953;28;45514;-69
2023/12/04 00:50:32;;;;;;;;;13.00;7.00;;;;;;;;5072810;28;45609;-70
2023/12/04 00:52:58;;;;;;;;;13.67;6.67;;;;;;;;5074519;28;46541;-70
2023/12/04 00:55:23;;;;;;;;;7.75;6.00;;;;;;;;5074289;28;45455;-69
2023/12/04 00:57:48;;;;;;;;;8.33;5.33;;;;;;;;5056786;28;45408;-70
2023/12/04 01:00:13;;;;;;;;;13.50;6.75;;;;;;;;5074535;28;45564;-70
2023/12/04 01:02:39;;;;;;;;;7.25;1.00;;;;;;;;5073938;28;46506;-70
2023/12/04 01:05:05;;;;;;;;;7.00;6.25;;;;;;;;5074216;28;45513;-70
2023/12/04 01:07:30;;;;;;;;;9.50;7.00;;;;;;;;5071922;28;45677;-69
2023/12/04 01:09:55;;;;;;;;;6.33;6.33;;;;;;;;5073201;28;45468;-69
2023/12/04 01:12:21;;;;;;;;;9.00;6.00;;;;;;;;5072315;28;45621;-69
2023/12/04 01:14:46;;;;;;;;;9.25;6.50;;;;;;;;5071654;28;46286;-70
2023/12/04 01:17:11;;;;;;;;;6.00;6.00;;;;;;;;5073816;27;45525;-70
2023/12/04 01:19:37;;;;;;;;;11.00;6.00;;;;;;;;5076252;28;45557;-70
2023/12/04 01:22:02;;;;;;;;;5.33;5.33;;;;;;;;5073595;27;46743;-73
2023/12/04 01:24:27;;;;;;;;;8.75;5.75;;;;;;;;5073969;28;45498;-69
2023/12/04 01:26:52;;;;;;;;;9.50;6.00;;;;;;;;5075174;28;45692;-69
2023/12/04 01:29:18;;;;;;;;;6.67;5.00;;;;;;;;5073276;28;45488;-71
2023/12/04 01:31:43;;;;;;;;;6.00;5.00;;;;;;;;5056839;28;48164;-70
2023/12/04 01:34:08;;;;;;;;;8.50;5.50;;;;;;;;5073041;28;45486;-71
2023/12/04 01:36:33;;;;;;;;;7.00;6.00;;;;;;;;5075014;28;45444;-70
2023/12/04 01:38:58;;;;;;;;;1.00;1.00;;;;;;;;5055309;28;45563;-69
2023/12/04 01:41:23;;;;;;;;;5.67;5.67;;;;;;;;5074636;28;45906;-70
2023/12/04 01:43:49;;;;;;;;;5.67;5.00;;;;;;;;5072393;28;45479;-71
2023/12/04 01:46:16;;;;;;;;;5.25;5.25;;;;;;;;5055569;28;45417;-70
2023/12/04 01:48:41;;;;;;;;;7.75;6.50;;;;;;;;5074036;28;45553;-68
2023/12/04 01:51:07;;;;;;;;;8.75;6.75;;;;;;;;5073904;28;45426;-69
2023/12/04 01:53:34;;;;;;;;;5.50;3.50;;;;;;;;5074191;28;45667;-69
2023/12/04 01:56:00;;;;;;;;;9.00;6.00;;;;;;;;5073896;28;45260;-69
2023/12/04 01:58:25;;;;;;;;;10.75;6.00;;;;;;;;5074270;28;45572;-69
2023/12/04 02:00:53;;;;;;;;;11.00;6.00;;;;;;;;5072140;28;45565;-70
2023/12/04 02:03:19;;;;;;;;;11.75;6.75;;;;;;;;5073549;28;45495;-72
2023/12/04 02:05:44;;;;;;;;;8.00;6.00;;;;;;;;5073594;28;45351;-69
2023/12/04 02:08:10;;;;;;;;;5.50;5.50;;;;;;;;5055436;28;46322;-70
2023/12/04 02:10:35;;;;;;;;;6.00;6.00;;;;;;;;5076840;28;46924;-70
2023/12/04 02:13:00;;;;;;;;;5.00;3.67;;;;;;;;5074227;28;45951;-70
2023/12/04 02:15:27;;;;;;;;;9.00;5.00;;;;;;;;5076971;28;45472;-69
2023/12/04 02:17:52;;;;;;;;;10.25;6.50;;;;;;;;5075817;28;45517;-68
2023/12/04 02:20:18;;;;;;;;;11.33;10.33;;;;;;;;5075553;28;45556;-69
2023/12/04 02:22:43;;;;;;;;;5.00;5.00;;;;;;;;5076252;28;45489;-69
2023/12/04 02:25:09;;;;;;;;;7.67;5.67;;;;;;;;5077381;28;45471;-70
2023/12/04 02:27:40;;;;;;;;;16.50;6.50;;;;;;;;5076649;28;45318;-69
2023/12/04 02:30:07;;;;;;;;;14.75;8.25;;;;;;;;5076627;28;46241;-69
2023/12/04 02:32:35;;;;;;;;;9.25;7.00;;;;;;;;5077038;28;45535;-69
2023/12/04 02:35:03;;;;;;;;;7.00;6.00;;;;;;;;5078235;28;45368;-69
2023/12/04 02:37:29;;;;;;;;;6.00;6.00;;;;;;;;5077132;28;45398;-70
2023/12/04 02:39:55;;;;;;;;;7.00;5.25;;;;;;;;5077332;28;46340;-72
2023/12/04 02:42:20;;;;;;;;;7.00;5.25;;;;;;;;5076561;28;45481;-70
2023/12/04 02:44:46;;;;;;;;;6.25;6.25;;;;;;;;5081134;27;45370;-71
2023/12/04 02:47:11;;;;;;;;;7.75;6.00;;;;;;;;5077566;27;45440;-70
2023/12/04 02:49:36;;;;;;;;;9.00;5.75;;;;;;;;5076034;28;46584;-70
2023/12/04 02:52:02;;;;;;;;;9.00;9.00;;;;;;;;5076312;28;45425;-68
2023/12/04 02:54:28;;;;;;;;;8.50;8.50;;;;;;;;5078059;28;45529;-71
2023/12/04 02:56:53;;;;;;;;;9.67;6.67;;;;;;;;5075812;28;45402;-69
2023/12/04 02:59:18;;;;;;;;;5.00;5.00;;;;;;;;5077031;28;45734;-69
2023/12/04 03:01:43;;;;;;;;;5.33;5.33;;;;;;;;5076254;28;45384;-71
2023/12/04 03:04:08;;;;;;;;;5.00;5.00;;;;;;;;5059839;28;45443;-69
2023/12/04 03:06:33;;;;;;;;;7.00;5.75;;;;;;;;5077398;28;45453;-70
2023/12/04 03:08:59;;;;;;;;;6.67;5.67;;;;;;;;5074826;28;45567;-70
2023/12/04 03:11:24;;;;;;;;;10.00;7.25;;;;;;;;5077551;28;45311;-70
2023/12/04 03:13:50;;;;;;;;;10.75;6.25;;;;;;;;5058538;28;45547;-70
2023/12/04 03:16:16;;;;;;;;;7.00;5.00;;;;;;;;5076225;28;45438;-69
2023/12/04 03:18:41;;;;;;;;;6.25;5.25;;;;;;;;5074575;28;45637;-70
2023/12/04 03:21:07;;;;;;;;;7.50;5.75;;;;;;;;5074293;28;46728;-69
2023/12/04 03:23:32;;;;;;;;;8.50;6.50;;;;;;;;5077732;28;45334;-71
2023/12/04 03:25:57;;;;;;;;;9.75;7.00;;;;;;;;5076684;28;45454;-72
2023/12/04 03:28:22;;;;;;;;;6.00;6.00;;;;;;;;5075761;28;45698;-72
2023/12/04 03:30:48;;;;;;;;;9.75;7.25;;;;;;;;5076290;28;45428;-69
2023/12/04 03:33:13;;;;;;;;;9.67;6.67;;;;;;;;5074595;28;45580;-69
2023/12/04 03:35:38;;;;;;;;;9.00;7.00;;;;;;;;5077298;28;45437;-70
2023/12/04 03:38:03;;;;;;;;;11.25;5.50;;;;;;;;5074923;28;45938;-69
2023/12/04 03:40:28;;;;;;;;;5.00;5.00;;;;;;;;5076579;28;45448;-69
2023/12/04 03:42:54;;;;;;;;;8.00;5.67;;;;;;;;5075978;28;46753;-70
2023/12/04 03:45:19;;;;;;;;;5.67;5.67;;;;;;;;5075820;28;45553;-69
2023/12/04 03:47:44;;;;;;;;;6.00;5.00;;;;;;;;5055847;28;47758;-68
2023/12/04 03:50:09;;;;;;;;;6.67;5.00;;;;;;;;5076280;28;45339;-69
2023/12/04 03:52:34;;;;;;;;;8.00;6.50;;;;;;;;5077170;28;45177;-70
2023/12/04 03:54:59;;;;;;;;;5.75;5.25;;;;;;;;5075318;28;45363;-71
2023/12/04 03:57:25;;;;;;;;;5.00;5.00;;;;;;;;5075650;28;45204;-71
2023/12/04 03:59:50;;;;;;;;;11.00;5.00;;;;;;;;5076255;28;45768;-69
2023/12/04 04:02:15;;;;;;;;;10.00;6.25;;;;;;;;5075455;28;45448;-69
2023/12/04 04:04:40;;;;;;;;;7.00;6.00;;;;;;;;5076338;28;45336;-69
2023/12/04 04:07:05;;;;;;;;;8.33;6.00;;;;;;;;5074752;28;45626;-69
2023/12/04 04:09:31;;;;;;;;;6.33;5.00;;;;;;;;5076227;28;45489;-70
2023/12/04 04:11:56;;;;;;;;;6.00;6.00;;;;;;;;5076540;28;46536;-69
2023/12/04 04:14:21;;;;;;;;;7.33;6.00;;;;;;;;5073875;27;45711;-71
2023/12/04 04:16:46;;;;;;;;;7.00;7.00;;;;;;;;5073724;28;45517;-69
2023/12/04 04:19:11;;;;;;;;;15.00;7.00;;;;;;;;5072427;28;45638;-69
2023/12/04 04:21:39;;;;;;;;;6.67;6.00;;;;;;;;5074579;27;45468;-70
2023/12/04 04:24:04;;;;;;;;;10.00;5.75;;;;;;;;5075204;28;45343;-69
2023/12/04 04:26:29;;;;;;;;;5.75;5.00;;;;;;;;5076166;28;45648;-69
2023/12/04 04:28:55;;;;;;;;;7.00;6.00;;;;;;;;5075715;28;45292;-69
2023/12/04 04:31:20;;;;;;;;;7.67;7.67;;;;;;;;5075326;28;45287;-69
2023/12/04 04:33:45;;;;;;;;;4.33;3.00;;;;;;;;5076242;28;45495;-69
2023/12/04 04:36:11;;;;;;;;;10.67;5.33;;;;;;;;5074204;28;46626;-69
2023/12/04 04:38:38;;;;;;;;;5.50;4.50;;;;;;;;5075826;28;45341;-69
2023/12/04 04:41:03;;;;;;;;;6.25;3.50;;;;;;;;5076116;28;45428;-69
2023/12/04 04:43:29;;;;;;;;;6.75;5.75;;;;;;;;5074808;28;45686;-69
2023/12/04 04:45:54;;;;;;;;;5.67;2.00;;;;;;;;5070530;28;45875;-71
2023/12/04 04:48:19;;;;;;;;;5.67;5.33;;;;;;;;5074825;28;47278;-70
2023/12/04 04:50:45;;;;;;;;;7.00;5.50;;;;;;;;5074732;28;45461;-71
2023/12/04 04:53:10;;;;;;;;;5.75;5.75;;;;;;;;5074949;28;45236;-70
2023/12/04 04:55:35;;;;;;;;;6.00;6.00;;;;;;;;5076090;28;45525;-71
2023/12/04 04:58:00;;;;;;;;;5.00;5.00;;;;;;;;5075290;28;45406;-71
2023/12/04 05:00:25;;;;;;;;;6.25;5.00;;;;;;;;5073983;28;45294;-71
2023/12/04 05:02:51;;;;;;;;;8.33;5.67;;;;;;;;5075679;28;45220;-71
2023/12/04 05:05:16;;;;;;;;;5.25;5.00;;;;;;;;5074285;28;45986;-69
2023/12/04 05:07:41;;;;;;;;;10.00;6.75;;;;;;;;5074948;28;45394;-69
2023/12/04 05:10:06;;;;;;;;;5.00;3.00;;;;;;;;5071233;27;45460;-70
2023/12/04 05:12:32;;;;;;;;;7.50;5.00;;;;;;;;5055894;28;45627;-72
2023/12/04 05:14:57;;;;;;;;;6.75;3.50;;;;;;;;5074323;28;46833;-69
2023/12/04 05:17:22;;;;;;;;;9.67;3.67;;;;;;;;5073875;28;45487;-69
2023/12/04 05:19:47;;;;;;;;;5.00;5.00;;;;;;;;5073558;28;45267;-70
2023/12/04 05:22:12;;;;;;;;;7.67;5.00;;;;;;;;5073915;28;45629;-70
2023/12/04 05:24:37;;;;;;;;;5.75;5.25;;;;;;;;5074512;28;45275;-72
2023/12/04 05:27:03;;;;;;;;;6.67;3.67;;;;;;;;5074789;28;45581;-68
2023/12/04 05:29:28;;;;;;;;;6.50;5.00;;;;;;;;5073686;28;45976;-70
2023/12/04 05:31:53;;;;;;;;;3.00;3.00;;;;;;;;5074434;28;45286;-69
2023/12/04 05:34:18;;;;;;;;;4.67;4.33;;;;;;;;5074951;28;46298;-69
2023/12/04 05:36:43;;;;;;;;;5.50;4.50;;;;;;;;5074218;28;45292;-69
2023/12/04 05:39:09;;;;;;;;;6.00;6.00;;;;;;;;5075375;28;45378;-72
2023/12/04 05:41:34;;;;;;;;;8.00;3.00;;;;;;;;5074410;28;45402;-69
2023/12/04 05:43:59;;;;;;;;;5.75;3.50;;;;;;;;5054507;28;47489;-70
2023/12/04 05:46:24;;;;;;;;;8.33;3.00;;;;;;;;5074118;28;45331;-69
2023/12/04 05:48:49;;;;;;;;;4.33;4.33;;;;;;;;5072743;27;45418;-69
2023/12/04 05:51:15;;;;;;;;;2.00;2.00;;;;;;;;5074960;28;45597;-70
2023/12/04 05:53:40;;;;;;;;;9.75;5.75;;;;;;;;5073573;28;46143;-69
2023/12/04 05:56:06;;;;;;;;;5.50;5.00;;;;;;;;5075135;28;45329;-69
2023/12/04 05:58:31;;;;;;;;;2.75;2.75;;;;;;;;5074910;28;45449;-70
2023/12/04 06:00:57;;;;;;;;;5.00;5.00;;;;;;;;5183426;22;46151;-71
2023/12/04 06:03:22;;;;;;;;;5.00;3.00;;;;;;;;5051767;28;45569;-69
2023/12/04 06:05:47;;;;;;;;;6.67;5.33;;;;;;;;5053473;28;45331;-69
2023/12/04 06:08:12;;;;;;;;;5.33;5.00;;;;;;;;5048726;28;45495;-71
2023/12/04 06:10:37;;;;;;;;;5.67;5.00;;;;;;;;5052337;28;45506;-70
2023/12/04 06:13:03;;;;;;;;;5.25;5.25;;;;;;;;5045007;28;46698;-69
2023/12/04 06:15:28;;;;;;;;;6.67;5.33;;;;;;;;5052582;28;45376;-69
2023/12/04 06:17:53;;;;;;;;;3.50;3.50;;;;;;;;5053067;28;45430;-69
2023/12/04 06:20:18;;;;;;;;;7.00;3.00;;;;;;;;5052091;28;45354;-69
2023/12/04 06:22:44;;;;;;;;;5.00;5.00;;;;;;;;5053038;28;45408;-71
2023/12/04 06:25:09;;;;;;;;;5.75;5.00;;;;;;;;5054600;28;45384;-69
2023/12/04 06:27:34;;;;;;;;;6.00;3.00;;;;;;;;5051482;28;45495;-71
2023/12/04 06:29:59;;;;;;;;;6.00;3.00;;;;;;;;5051771;28;45552;-69
2023/12/04 06:32:25;;;;;;;;;5.00;2.75;;;;;;;;5053573;28;46394;-71
2023/12/04 06:34:51;;;;;;;;;7.25;5.00;;;;;;;;5051857;28;45576;-72
2023/12/04 06:37:16;;;;;;;;;2.75;2.75;;;;;;;;5053962;28;45546;-70
2023/12/04 06:39:41;;;;;;;;;5.75;5.00;;;;;;;;5053783;28;45299;-70
2023/12/04 06:42:07;;;;;;;;;5.75;3.50;;;;;;;;5053269;28;46043;-71
2023/12/04 06:44:32;;;;;;;;;8.00;4.00;;;;;;;;5054416;28;45661;-69
2023/12/04 06:46:59;;;;;;;;;8.50;5.50;;;;;;;;5052327;28;45430;-69
2023/12/04 06:49:25;;;;;;;;;6.00;3.00;;;;;;;;5053988;28;45358;-71
2023/12/04 06:51:50;;;;;;;;;3.00;3.00;;;;;;;;5052768;28;46667;-70
2023/12/04 06:54:17;;;;;;;;;6.00;2.00;;;;;;;;5054911;28;45381;-72
2023/12/04 06:56:43;;;;;;;;;5.25;2.50;;;;;;;;5056363;28;45418;-69
2023/12/04 06:59:08;;;;;;;;;2.00;2.00;;;;;;;;5056898;28;45462;-69
2023/12/04 07:01:33;;;;;;;;;3.00;3.00;;;;;;;;5056473;28;46451;-69
2023/12/04 07:03:58;;;;;;;;;2.00;2.00;;;;;;;;5053948;28;45398;-69
2023/12/04 07:06:24;;;;;;;;;3.00;3.00;;;;;;;;5056990;28;45677;-72
2023/12/04 07:08:49;;;;;;;;;5.75;4.00;;;;;;;;5055506;28;45579;-71
2023/12/04 07:11:15;;;;;;;;;6.50;4.00;;;;;;;;5054848;28;47577;-69
2023/12/04 07:13:41;;;;;;;;;5.00;4.00;;;;;;;;5054958;28;45569;-70
2023/12/04 07:16:07;;;;;;;;;4.25;4.00;;;;;;;;5049620;28;45490;-69
2023/12/04 07:18:32;;;;;;;;;8.00;4.00;;;;;;;;5054053;28;45625;-68
2023/12/04 07:20:57;;;;;;;;;3.00;1.67;;;;;;;;5049404;28;46768;-70
2023/12/04 07:23:22;;;;;;;;;3.00;3.00;;;;;;;;5051360;28;45584;-71
2023/12/04 07:25:48;;;;;;;;;2.67;2.67;;;;;;;;5043560;28;45655;-72
2023/12/04 07:28:13;;;;;;;;;2.25;2.00;;;;;;;;5051069;28;45894;-71
2023/12/04 07:30:38;;;;;;;;;0.00;0.00;;;;;;;;5045106;28;45715;-70
2023/12/04 07:33:04;;;;;;;;;8.25;3.50;;;;;;;;5048741;28;45427;-72
2023/12/04 07:35:29;;;;;;;;;5.00;3.00;;;;;;;;5050653;28;45695;-73
2023/12/04 07:37:54;;;;;;;;;6.00;6.00;;;;;;;;5054636;28;45354;-72
2023/12/04 07:40:21;;;;;;;;;4.33;4.33;;;;;;;;5051307;28;47460;-71
2023/12/04 07:42:46;;;;;;;;;6.75;5.75;;;;;;;;5050685;28;45508;-71
2023/12/04 07:45:11;;;;;;;;;3.00;3.00;;;;;;;;5051991;28;45450;-71
2023/12/04 07:47:36;;;;;;;;;1.25;1.00;;;;;;;;5055440;28;45416;-72
2023/12/04 07:50:01;;;;;;;;;12.00;5.00;;;;;;;;5035318;28;47336;-72
2023/12/04 07:52:27;;;;;;;;;4.00;3.00;;;;;;;;5054575;28;45458;-72
2023/12/04 07:54:52;;;;;;;;;5.00;5.00;;;;;;;;5047861;28;45482;-72
2023/12/04 07:57:17;;;;;;;;;5.00;2.00;;;;;;;;5054443;28;45620;-73
2023/12/04 07:59:42;;;;;;;;;3.75;3.50;;;;;;;;5054659;28;45600;-72
2023/12/04 08:02:08;;;;;;;;;6.00;3.00;;;;;;;;5051733;28;45508;-72
2023/12/04 08:04:33;;;;;;;;;3.00;3.00;;;;;;;;5056197;28;45246;-73
2023/12/04 08:06:58;;;;;;;;;5.25;3.00;;;;;;;;5052625;28;45455;-73
2023/12/04 08:09:23;;;;;;;;;3.00;2.00;;;;;;;;5049696;28;46454;-72
2023/12/04 08:11:48;;;;;;;;;5.75;3.00;;;;;;;;5054831;28;45309;-72
2023/12/04 08:14:14;;;;;;;;;2.33;2.00;;;;;;;;5055140;28;45470;-72
2023/12/04 08:16:39;;;;;;;;;5.00;3.00;;;;;;;;5057242;28;45510;-72
2023/12/04 08:19:04;;;;;;;;;3.25;3.25;;;;;;;;5056981;28;45665;-70
2023/12/04 08:21:29;;;;;;;;;3.00;3.00;;;;;;;;5034095;28;46093;-68
2023/12/04 08:23:54;;;;;;;;;5.33;2.67;;;;;;;;5057608;28;45145;-68
2023/12/04 08:26:24;;;;;;;;;2.00;1.00;;;;;;;;5055563;28;45749;-67
2023/12/04 08:28:49;;;;;;;;;6.75;4.00;;;;;;;;5038296;28;47644;-70
2023/12/04 08:31:15;;;;;;;;;3.50;2.00;;;;;;;;5053942;28;45538;-70
2023/12/04 08:33:40;;;;;;;;;2.25;2.25;;;;;;;;5038249;28;46078;-70
2023/12/04 08:36:05;;;;;;;;;3.00;3.00;;;;;;;;5038609;28;47137;-70
2023/12/04 08:38:31;;;;;;;;;2.50;2.50;;;;;;;;5056537;28;45476;-70
2023/12/04 08:40:56;;;;;;;;;3.00;3.00;;;;;;;;5057310;28;45335;-69
2023/12/04 08:43:21;;;;;;;;;5.00;2.50;;;;;;;;5057422;28;45425;-70
2023/12/04 08:45:46;;;;;;;;;2.00;2.00;;;;;;;;5057480;28;45584;-68
2023/12/04 08:48:11;;;;;;;;;1.00;0.00;;;;;;;;5054844;28;45854;-69
2023/12/04 08:50:37;;;;;;;;;2.33;2.33;;;;;;;;5052863;28;45437;-73
2023/12/04 08:53:03;;;;;;;;;6.25;3.00;;;;;;;;5039799;28;45654;-69
2023/12/04 08:55:28;;;;;;;;;2.25;2.25;;;;;;;;5052292;28;45559;-70
2023/12/04 08:57:53;;;;;;;;;4.33;2.00;;;;;;;;5049896;28;46565;-70
2023/12/04 09:00:19;;;;;;;;;3.00;1.25;;;;;;;;5050434;28;45588;-72
2023/12/04 09:02:44;;;;;;;;;4.00;2.50;;;;;;;;5031958;28;45443;-71
2023/12/04 09:05:09;;;;;;;;;6.00;3.00;;;;;;;;5051327;28;45439;-71
2023/12/04 09:07:35;;;;;;;;;5.67;5.33;;;;;;;;5052122;28;46057;-71
2023/12/04 09:10:01;;;;;;;;;5.00;2.75;;;;;;;;5032176;28;45356;-71
2023/12/04 09:12:26;;;;;;;;;0.50;0.50;;;;;;;;5050493;28;45233;-70
2023/12/04 09:14:51;;;;;;;;;7.00;2.75;;;;;;;;5050618;28;45366;-70
2023/12/04 09:17:16;;;;;;;;;2.25;2.25;;;;;;;;5052194;28;45705;-71
2023/12/04 09:19:42;;;;;;;;;2.00;2.00;;;;;;;;5048942;28;45723;-70
2023/12/04 09:22:08;;;;;;;;;3.00;3.00;;;;;;;;5050024;28;45444;-71
2023/12/04 09:24:33;;;;;;;;;6.00;5.00;;;;;;;;5052542;28;45570;-70
2023/12/04 09:26:58;;;;;;;;;2.50;2.50;;;;;;;;5046833;28;45738;-69
2023/12/04 09:29:23;;;;;;;;;2.67;2.67;;;;;;;;5050339;28;45408;-71
2023/12/04 09:31:49;;;;;;;;;5.00;5.00;;;;;;;;5052264;28;45450;-69
2023/12/04 09:34:15;;;;;;;;;7.50;4.00;;;;;;;;5048370;28;45442;-70
2023/12/04 09:36:40;;;;;;;;;4.33;2.67;;;;;;;;5053387;28;45507;-71
2023/12/04 09:39:05;;;;;;;;;2.00;2.00;;;;;;;;5052350;28;45597;-71
2023/12/04 09:41:31;;;;;;;;;3.50;2.00;;;;;;;;5050042;28;45406;-69
2023/12/04 09:43:57;;;;;;;;;3.00;3.00;;;;;;;;5047481;28;46369;-70
2023/12/04 09:46:22;;;;;;;;;2.00;2.00;;;;;;;;5053410;28;46680;-70
2023/12/04 09:48:47;;;;;;;;;5.00;3.00;;;;;;;;5050207;28;45386;-69
2023/12/04 09:51:13;;;;;;;;;4.50;2.50;;;;;;;;5047629;28;45371;-69
2023/12/04 09:53:39;;;;;;;;;0.00;0.00;;;;;;;;5049698;28;45510;-70
2023/12/04 09:56:06;;;;;;;;;2.25;2.25;;;;;;;;5052101;28;46734;-71
2023/12/04 09:58:32;;;;;;;;;3.75;3.00;;;;;;;;5051325;28;45477;-69
2023/12/04 10:00:58;;;;;;;;;1.50;0.00;;;;;;;;5052912;28;45616;-69
2023/12/04 10:03:24;;;;;;;;;3.00;2.00;;;;;;;;5032155;28;45592;-69
2023/12/04 10:05:49;;;;;;;;;4.25;2.75;;;;;;;;5051952;28;46818;-70
2023/12/04 10:08:16;;;;;;;;;4.50;2.00;;;;;;;;5049231;28;45476;-70
2023/12/04 10:10:42;;;;;;;;;3.25;2.00;;;;;;;;5051400;28;45411;-70
2023/12/04 10:13:07;;;;;;;;;1.25;1.25;;;;;;;;5051093;28;45504;-70
2023/12/04 10:15:32;;;;;;;;;5.33;5.00;;;;;;;;5047040;28;46399;-71
2023/12/04 10:17:57;;;;;;;;;3.00;3.00;;;;;;;;5050430;28;45407;-70
2023/12/04 10:20:24;;;;;;;;;4.00;4.00;;;;;;;;5046753;28;45494;-70
2023/12/04 10:22:56;;;;;;;;;8.00;2.00;;;;;;;;5051693;28;45574;-71
2023/12/04 10:25:24;;;;;;;;;4.25;2.00;;;;;;;;5050867;28;46855;-70
2023/12/04 10:27:49;;;;;;;;;6.50;3.00;;;;;;;;5054242;28;45482;-69
2023/12/04 10:30:27;;;;;;;;;3.00;2.00;;;;;;;;5055361;28;45535;-71
2023/12/04 10:33:00;;;;;;;;;7.00;3.00;;;;;;;;5053102;28;45489;-70
2023/12/04 10:35:29;;;;;;;;;2.50;2.50;;;;;;;;5054712;28;46188;-71
2023/12/04 10:37:55;;;;;;;;;3.00;1.50;;;;;;;;5051178;28;45458;-70
2023/12/04 10:40:27;;;;;;;;;2.50;2.50;;;;;;;;5051733;28;45559;-70
2023/12/04 10:43:11;;;;;;;;;3.50;2.00;;;;;;;;5048139;28;45941;-70
2023/12/04 10:45:39;;;;;;;;;2.00;2.00;;;;;;;;5053967;28;46336;-71
2023/12/04 10:48:05;;;;;;;;;5.75;2.00;;;;;;;;5056054;28;45462;-69
2023/12/04 10:50:40;;;;;;;;;2.75;2.75;;;;;;;;5055347;28;45567;-71
2023/12/04 10:53:09;;;;;;;;;6.75;3.00;;;;;;;;5051740;28;45414;-69
2023/12/04 10:55:34;;;;;;;;;5.75;5.75;;;;;;;;5052449;28;45936;-72
2023/12/04 10:58:01;;;;;;;;;5.00;4.00;;;;;;;;5056379;28;45455;-71
2023/12/04 11:00:28;;;;;;;;;5.50;3.25;;;;;;;;5056592;28;46673;-71
2023/12/04 11:02:55;;;;;;;;;2.25;2.25;;;;;;;;5054988;28;45554;-69
2023/12/04 11:05:21;;;;;;;;;3.00;3.00;;;;;;;;5053119;28;45750;-68
2023/12/04 11:07:59;;;;;;;;;2.25;2.25;;;;;;;;5054603;28;45786;-69
2023/12/04 11:10:25;;;;;;;;;6.75;3.00;;;;;;;;5033176;28;45498;-70
2023/12/04 11:12:55;;;;;;;;;3.00;3.00;;;;;;;;5050791;28;45432;-67
2023/12/04 11:15:23;;;;;;;;;3.00;3.00;;;;;;;;5053642;28;47029;-68
2023/12/04 11:17:51;;;;;;;;;3.00;3.00;;;;;;;;5052711;28;45443;-68
2023/12/04 11:20:21;;;;;;;;;4.00;3.00;;;;;;;;5049613;28;45545;-67
2023/12/04 11:22:47;;;;;;;;;6.25;4.75;;;;;;;;5051575;28;45432;-67
2023/12/04 11:25:13;;;;;;;;;3.75;2.75;;;;;;;;5052356;28;46309;-68
2023/12/04 11:27:39;;;;;;;;;3.00;3.00;;;;;;;;5054514;28;45534;-68
2023/12/04 11:30:06;;;;;;;;;5.00;3.00;;;;;;;;5029894;28;45572;-69
2023/12/04 11:32:31;;;;;;;;;6.00;4.00;;;;;;;;5048132;28;45565;-68
2023/12/04 11:34:59;;;;;;;;;2.00;2.00;;;;;;;;5054953;28;46441;-67
2023/12/04 11:37:24;;;;;;;;;3.50;2.00;;;;;;;;5050050;28;45497;-67
2023/12/04 11:39:50;;;;;;;;;7.75;3.75;;;;;;;;5056043;28;45498;-69
2023/12/04 11:42:24;;;;;;;;;4.33;3.67;;;;;;;;5052084;28;45478;-67
2023/12/04 11:44:55;;;;;;;;;3.75;2.25;;;;;;;;5048913;28;46278;-68
2023/12/04 11:47:21;;;;;;;;;7.00;3.00;;;;;;;;5053908;28;45403;-70
2023/12/04 11:49:46;;;;;;;;;4.50;4.50;;;;;;;;5055824;28;45383;-67
2023/12/04 11:52:11;;;;;;;;;5.00;3.00;;;;;;;;5054245;28;45461;-69
2023/12/04 11:54:56;;;;;;;;;5.33;4.00;;;;;;;;5054925;28;45603;-72
2023/12/04 11:57:29;;;;;;;;;4.00;3.00;;;;;;;;5051480;28;45533;-71
2023/12/04 12:00:11;;;;;;;;;5.50;3.50;;;;;;;;5047938;28;45673;-71
2023/12/04 12:02:37;;;;;;;;;4.67;3.00;;;;;;;;5055913;28;45609;-73
2023/12/04 12:05:02;;;;;;;;;2.00;2.00;;;;;;;;5055213;28;45981;-70
2023/12/04 12:07:28;;;;;;;;;3.33;3.33;;;;;;;;5053075;28;45937;-70
2023/12/04 12:09:53;;;;;;;;;3.67;3.33;;;;;;;;5057160;28;45306;-72
2023/12/04 12:12:18;;;;;;;;;5.33;3.67;;;;;;;;5056512;28;45383;-70
2023/12/04 12:14:43;;;;;;;;;2.67;2.00;;;;;;;;5035731;28;47796;-70
2023/12/04 12:17:09;;;;;;;;;5.33;3.00;;;;;;;;5056674;28;45449;-73
2023/12/04 12:19:34;;;;;;;;;2.33;2.33;;;;;;;;5037310;28;45760;-71
2023/12/04 12:21:59;;;;;;;;;2.00;2.00;;;;;;;;5053318;28;45636;-72
2023/12/04 12:24:26;;;;;;;;;4.00;3.00;;;;;;;;5056493;28;45446;-71
2023/12/04 12:26:51;;;;;;;;;3.00;3.00;;;;;;;;5057111;28;45217;-72
2023/12/04 12:29:17;;;;;;;;;3.00;3.00;;;;;;;;5038307;28;45470;-71
2023/12/04 12:31:42;;;;;;;;;3.00;3.00;;;;;;;;5057062;28;45449;-70
2023/12/04 12:34:07;;;;;;;;;4.33;2.33;;;;;;;;5057319;28;45649;-70
2023/12/04 12:36:32;;;;;;;;;4.00;3.00;;;;;;;;5051887;28;45372;-70
2023/12/04 12:39:00;;;;;;;;;3.00;3.00;;;;;;;;5057244;28;45485;-71
2023/12/04 12:41:26;;;;;;;;;3.33;2.00;;;;;;;;5057338;28;45440;-71
2023/12/04 12:43:52;;;;;;;;;4.00;3.00;;;;;;;;5056316;28;46039;-72
2023/12/04 12:46:17;;;;;;;;;8.00;5.00;;;;;;;;5051109;28;45419;-70
2023/12/04 12:48:43;;;;;;;;;4.00;3.00;;;;;;;;5038854;28;45543;-73
2023/12/04 12:51:11;;;;;;;;;3.67;2.67;;;;;;;;5056765;28;45426;-70
2023/12/04 12:53:36;;;;;;;;;5.00;4.00;;;;;;;;5055354;28;47216;-70
2023/12/04 12:56:01;;;;;;;;;4.00;3.00;;;;;;;;5056310;28;45458;-70
2023/12/04 12:58:27;;;;;;;;;2.00;2.00;;;;;;;;5056147;28;45422;-70
2023/12/04 13:00:52;;;;;;;;;2.00;2.00;;;;;;;;5055719;28;45361;-70
2023/12/04 13:03:17;;;;;;;;;5.67;4.00;;;;;;;;5055327;28;46491;-70
2023/12/04 13:05:43;;;;;;;;;4.00;4.00;;;;;;;;5055650;28;45609;-71
2023/12/04 13:08:09;;;;;;;;;2.67;2.67;;;;;;;;5055316;28;45486;-71
2023/12/04 13:10:34;;;;;;;;;2.00;2.00;;;;;;;;5050223;28;45382;-70
2023/12/04 13:13:00;;;;;;;;;3.33;3.00;;;;;;;;5051807;28;45858;-72
2023/12/04 13:15:25;;;;;;;;;4.00;3.00;;;;;;;;5049956;28;45581;-71
2023/12/04 13:17:50;;;;;;;;;3.00;2.00;;;;;;;;5052482;28;45335;-75
2023/12/04 13:20:16;;;;;;;;;5.00;3.00;;;;;;;;5053003;28;45674;-71
2023/12/04 13:22:42;;;;;;;;;3.00;3.00;;;;;;;;5048387;28;46815;-69
2023/12/04 13:25:09;;;;;;;;;4.67;3.00;;;;;;;;5054749;28;45459;-71
2023/12/04 13:27:36;;;;;;;;;2.00;2.00;;;;;;;;5051330;28;45457;-70
2023/12/04 13:30:01;;;;;;;;;3.00;3.00;;;;;;;;5026409;28;45692;-72
2023/12/04 13:32:27;;;;;;;;;4.00;3.00;;;;;;;;5053934;28;46516;-71
2023/12/04 13:34:54;;;;;;;;;3.00;3.00;;;;;;;;5030196;28;45534;-70
2023/12/04 13:37:19;;;;;;;;;4.67;3.00;;;;;;;;5052453;28;45272;-71
2023/12/04 13:39:47;;;;;;;;;4.00;3.00;;;;;;;;5034168;28;45563;-71
2023/12/04 13:45:01;;;;;;;;;4.00;3.00;;;;;;;;5006280;28;45519;-69
2023/12/04 13:47:27;;;;;;;;;3.00;3.00;;;;;;;;5049168;28;46091;-70
2023/12/04 13:49:52;;;;;;;;;5.33;1.67;;;;;;;;5046654;28;45587;-69
2023/12/04 13:52:22;;;;;;;;;5.00;2.33;;;;;;;;5052991;28;45728;-71
2023/12/04 13:54:49;;;;;;;;;4.33;3.00;;;;;;;;5050421;28;46004;-69
2023/12/04 13:57:44;;;;;;;;;3.33;3.33;;;;;;;;5052736;28;45314;-70
2023/12/04 14:00:00;;;;;;;;;2.00;2.00;;;;;;;;5052411;28;45418;-69
2023/12/04 14:02:25;;;;;;;;;5.00;2.00;;;;;;;;5031203;28;48344;-69
2023/12/04 14:04:51;;;;;;;;;3.00;3.00;;;;;;;;5051116;28;45490;-70
2023/12/04 14:07:17;;;;;;;;;1.00;1.00;;;;;;;;5051775;28;45442;-70
2023/12/04 14:09:42;;;;;;;;;4.33;3.33;;;;;;;;5051792;28;45387;-69
2023/12/04 14:12:08;;;;;;;;;4.00;3.00;;;;;;;;5029777;28;48497;-69
2023/12/04 14:14:34;;;;;;;;;3.00;3.00;;;;;;;;5053692;28;45490;-72
2023/12/04 14:16:59;;;;;;;;;3.33;2.00;;;;;;;;5049290;28;45520;-72
2023/12/04 14:19:25;;;;;;;;;2.67;2.00;;;;;;;;5053763;28;45422;-70
2023/12/04 14:21:50;;;;;;;;;4.00;3.00;;;;;;;;5052811;28;45860;-72
2023/12/04 14:24:15;;;;;;;;;2.00;2.00;;;;;;;;5051361;28;45424;-70
2023/12/04 14:26:40;;;;;;;;;3.00;2.00;;;;;;;;5050896;28;45837;-69
2023/12/04 14:29:07;;;;;;;;;4.00;3.00;;;;;;;;5051311;28;45482;-68
2023/12/04 14:31:33;;;;;;;;;1.67;1.67;;;;;;;;5049995;28;45803;-69
2023/12/04 14:33:58;;;;;;;;;3.00;2.00;;;;;;;;5053482;28;45473;-70
2023/12/04 14:36:23;;;;;;;;;3.00;2.00;;;;;;;;5047755;28;45666;-71
2023/12/04 14:38:48;;;;;;;;;4.00;3.00;;;;;;;;5047920;28;45419;-70